Princeton, West Virginia
Current Conditions -  °F | °C
As of 5:52 PM on Tuesday 21 Oct 2014 (Local Time) from KBLF Reporting Station
Overcast Overcast  
Wind Chill: 44°   Ceiling: 1800
Heat Index: 47°   Visibility: 10mi
Dew Point: 39°   Wind: 6mph
Humidity: 74%   Direction: 320°NW
Pressure: 29.99"   Gusts: NA
Location:  37.37°N, 81.1°W
Report Text: KBLF 212152Z AUTO 32005KT 10SM SCT013 BKN018 OVC030 08/04 A2999 RMK AO2 RAB15E29 SLP151 P0000 T00830039
Loading
Personal Weather Stations






























Interactive Weather Map
Tropical Storm Tracking
New forecast layout! Learn more

10-Day Weather Forecast

Advertisements
Track Severe Weather on mobile